Time;durP1;ratioP1;P1;durP2;ratioP2;P2;SDS_P1;SDS_P2;PMS_P1;PMS_P2;Temp;Humidity;BMP_temperature;BMP_pressure;BME280_temperature;BME280_humidity;BME280_pressure;Samples;Min_cycle;Max_cycle;Signal;HPM_P1;HPM_P2
2023/12/25 00:03:41;;;;;;;0.30;0.30;;;19.90;39.40;;;;;;8330946;28;20037;-50
2023/12/25 00:07:42;;;;;;;0.32;0.32;;;20.00;39.40;;;;;;8330666;28;20046;-47
2023/12/25 00:11:43;;;;;;;0.20;0.20;;;20.00;39.30;;;;;;8330443;28;20052;-51
2023/12/25 00:15:43;;;;;;;0.30;0.30;;;20.00;39.60;;;;;;8330373;28;20036;-48
2023/12/25 00:19:44;;;;;;;0.30;0.30;;;19.90;39.90;;;;;;8330291;28;20033;-50
2023/12/25 00:23:45;;;;;;;0.20;0.20;;;19.80;40.00;;;;;;8330399;28;20069;-49
2023/12/25 00:27:45;;;;;;;0.22;0.22;;;19.70;41.10;;;;;;8347530;28;20095;-47
2023/12/25 00:31:47;;;;;;;0.20;0.20;;;19.60;41.00;;;;;;8362789;28;20478;-48
2023/12/25 00:35:48;;;;;;;0.22;0.22;;;19.60;40.50;;;;;;8363375;28;20106;-46
2023/12/25 00:39:49;;;;;;;0.30;0.30;;;19.70;40.10;;;;;;8362207;28;20049;-47
2023/12/25 00:43:49;;;;;;;0.30;0.30;;;19.80;39.80;;;;;;8362500;28;20474;-49
2023/12/25 00:47:50;;;;;;;0.30;0.30;;;19.90;39.60;;;;;;8360976;28;20037;-49
2023/12/25 00:51:51;;;;;;;0.20;0.20;;;19.90;39.40;;;;;;8362278;28;20033;-49
2023/12/25 00:55:51;;;;;;;0.75;0.30;;;20.00;39.30;;;;;;8362141;28;20475;-49
2023/12/25 00:59:52;;;;;;;0.30;0.30;;;20.00;39.30;;;;;;8361797;28;20047;-51
2023/12/25 01:03:53;;;;;;;0.30;0.30;;;19.90;39.30;;;;;;8362019;28;20033;-49
2023/12/25 01:07:54;;;;;;;0.28;0.28;;;20.00;39.40;;;;;;8360230;28;20045;-51
2023/12/25 01:11:54;;;;;;;0.22;0.22;;;19.90;39.70;;;;;;8361631;28;20430;-50
2023/12/25 01:15:55;;;;;;;0.20;0.20;;;19.60;41.00;;;;;;8361393;28;20044;-49
2023/12/25 01:19:56;;;;;;;0.20;0.20;;;19.50;41.20;;;;;;8361517;28;20048;-51
2023/12/25 01:23:56;;;;;;;0.30;0.30;;;19.60;40.70;;;;;;8361703;28;20025;-52
2023/12/25 01:27:57;;;;;;;0.30;0.30;;;19.70;40.20;;;;;;8360898;28;20032;-49
2023/12/25 01:31:58;;;;;;;0.30;0.30;;;19.80;39.90;;;;;;8361305;28;20083;-49
2023/12/25 01:35:59;;;;;;;0.30;0.30;;;19.90;39.60;;;;;;8360832;28;20032;-49
2023/12/25 01:39:59;;;;;;;0.28;0.28;;;19.90;39.40;;;;;;8360756;28;20036;-50
2023/12/25 01:44:00;;;;;;;0.30;0.30;;;19.90;39.40;;;;;;8360719;28;20078;-50
2023/12/25 01:48:01;;;;;;;0.25;0.25;;;20.00;39.40;;;;;;8359967;28;20033;-52
2023/12/25 01:52:02;;;;;;;0.40;0.40;;;19.90;39.40;;;;;;8360077;28;20666;-49
2023/12/25 01:56:03;;;;;;;0.20;0.20;;;20.00;39.40;;;;;;8360477;28;20033;-47
2023/12/25 02:00:04;;;;;;;0.30;0.30;;;19.80;39.90;;;;;;8360125;28;20037;-47
2023/12/25 02:04:05;;;;;;;0.20;0.20;;;19.60;41.30;;;;;;8359072;28;20525;-50
2023/12/25 02:08:07;;;;;;;0.20;0.20;;;19.60;40.70;;;;;;8359785;28;20443;-46
2023/12/25 02:12:09;;;;;;;0.10;0.10;;;19.60;40.30;;;;;;8360464;28;20048;-50
2023/12/25 02:16:10;;;;;;;0.35;0.30;;;19.70;40.10;;;;;;8360006;28;20044;-48
2023/12/25 02:20:13;;;;;;;0.25;0.25;;;19.70;40.20;;;;;;8359839;28;20398;-50
2023/12/25 02:24:21;;;;;;;0.20;0.20;;;19.80;39.80;;;;;;8359531;28;20048;-48
2023/12/25 02:28:22;;;;;;;0.30;0.30;;;19.90;39.50;;;;;;8359448;28;20036;-49
2023/12/25 02:32:23;;;;;;;0.30;0.30;;;19.90;39.40;;;;;;8359909;28;20041;-48
2023/12/25 02:36:24;;;;;;;0.38;0.20;;;19.90;39.40;;;;;;8359566;28;20033;-49
2023/12/25 02:40:24;;;;;;;0.20;0.20;;;19.90;39.40;;;;;;8359359;28;20647;-48
2023/12/25 02:44:25;;;;;;;0.20;0.20;;;19.90;39.40;;;;;;8359533;28;20044;-46
2023/12/25 02:48:26;;;;;;;0.30;0.30;;;19.80;40.00;;;;;;8359240;28;20444;-47
2023/12/25 02:52:27;;;;;;;0.30;0.30;;;19.60;41.00;;;;;;8359471;28;20115;-47
2023/12/25 02:56:27;;;;;;;0.30;0.30;;;19.60;40.60;;;;;;8359011;28;20052;-50
2023/12/25 03:00:28;;;;;;;0.20;0.20;;;19.60;40.30;;;;;;8361080;28;20613;-47
2023/12/25 03:04:28;;;;;;;2.75;0.20;;;19.70;39.80;;;;;;8365896;28;20490;-50
2023/12/25 03:08:29;;;;;;;0.10;0.10;;;19.80;39.70;;;;;;8365204;28;20049;-50
2023/12/25 03:12:30;;;;;;;0.20;0.20;;;19.80;39.40;;;;;;8365325;28;20029;-52
2023/12/25 03:16:31;;;;;;;0.20;0.20;;;19.80;39.60;;;;;;8365174;28;20497;-51
2023/12/25 03:20:31;;;;;;;0.20;0.20;;;19.80;39.70;;;;;;8364840;28;20025;-49
2023/12/25 03:24:32;;;;;;;0.30;0.30;;;19.90;39.60;;;;;;8365091;28;20471;-50
2023/12/25 03:28:33;;;;;;;0.30;0.30;;;19.90;39.50;;;;;;8364400;28;20037;-49
2023/12/25 03:32:34;;;;;;;0.20;0.20;;;19.90;39.50;;;;;;8364997;28;20518;-51
2023/12/25 03:36:34;;;;;;;0.20;0.20;;;19.80;40.00;;;;;;8364612;28;20167;-51
2023/12/25 03:40:35;;;;;;;0.20;0.20;;;19.60;40.90;;;;;;8364228;28;20029;-49
2023/12/25 03:44:36;;;;;;;0.20;0.20;;;19.60;40.70;;;;;;8364346;28;20033;-50
2023/12/25 03:48:37;;;;;;;0.10;0.10;;;19.60;40.20;;;;;;8364545;28;20075;-48
2023/12/25 03:52:37;;;;;;;0.15;0.10;;;19.70;39.90;;;;;;8364287;28;20676;-49
2023/12/25 03:56:38;;;;;;;0.20;0.20;;;19.80;39.70;;;;;;8363864;28;20029;-50
2023/12/25 04:00:39;;;;;;;0.10;0.10;;;19.90;39.40;;;;;;8363777;28;20078;-50
2023/12/25 04:04:39;;;;;;;0.20;0.20;;;19.90;39.30;;;;;;8363896;28;20037;-53
2023/12/25 04:08:40;;;;;;;0.20;0.20;;;19.90;39.30;;;;;;8362151;28;20107;-48
2023/12/25 04:12:41;;;;;;;0.32;0.32;;;19.90;39.30;;;;;;8362946;28;20040;-50
2023/12/25 04:16:42;;;;;;;0.28;0.28;;;19.90;39.50;;;;;;8363562;28;20033;-48
2023/12/25 04:20:42;;;;;;;0.30;0.30;;;19.80;39.80;;;;;;8363201;28;20029;-49
2023/12/25 04:24:43;;;;;;;0.17;0.17;;;19.70;40.30;;;;;;8363125;28;20037;-50
2023/12/25 04:28:44;;;;;;;0.30;0.30;;;19.60;41.10;;;;;;8363002;28;20075;-49
2023/12/25 04:32:45;;;;;;;0.30;0.30;;;19.60;40.70;;;;;;8362998;28;20057;-48
2023/12/25 04:36:45;;;;;;;0.20;0.20;;;19.60;40.30;;;;;;8362677;28;20048;-50
2023/12/25 04:40:46;;;;;;;0.20;0.20;;;19.60;39.90;;;;;;8361580;28;20041;-48
2023/12/25 04:44:47;;;;;;;0.43;0.30;;;19.80;39.70;;;;;;8362382;28;20029;-47
2023/12/25 04:48:48;;;;;;;0.30;0.30;;;19.80;39.40;;;;;;8362315;28;20273;-48
2023/12/25 04:52:48;;;;;;;0.28;0.28;;;19.90;39.30;;;;;;8361205;28;20064;-47
2023/12/25 04:56:52;;;;;;;0.20;0.20;;;19.90;39.30;;;;;;8361926;28;20037;-48
2023/12/25 05:00:52;;;;;;;0.30;0.30;;;19.90;39.30;;;;;;8361936;28;20122;-48
2023/12/25 05:04:53;;;;;;;0.20;0.20;;;19.90;39.30;;;;;;8361627;28;20033;-49
2023/12/25 05:08:53;;;;;;;0.30;0.30;;;19.80;39.30;;;;;;8361606;28;20037;-48
2023/12/25 05:12:54;;;;;;;0.20;0.20;;;19.80;40.00;;;;;;8361752;28;20078;-49
2023/12/25 05:16:55;;;;;;;0.20;0.20;;;19.50;41.00;;;;;;8361478;28;20048;-47
2023/12/25 05:20:56;;;;;;;0.20;0.20;;;19.50;40.80;;;;;;8361450;28;20737;-47
2023/12/25 05:24:56;;;;;;;0.20;0.20;;;19.60;40.30;;;;;;8360591;28;20486;-50
2023/12/25 05:28:57;;;;;;;0.25;0.25;;;19.80;39.80;;;;;;8361434;28;20471;-52
2023/12/25 05:32:58;;;;;;;0.10;0.10;;;19.90;39.40;;;;;;8361337;28;20037;-49
2023/12/25 05:36:58;;;;;;;0.20;0.20;;;19.90;39.20;;;;;;8361304;28;20163;-49
2023/12/25 05:40:59;;;;;;;0.25;0.25;;;20.00;39.10;;;;;;8360988;28;20033;-49
2023/12/25 05:45:00;;;;;;;0.20;0.20;;;20.00;38.90;;;;;;8361076;28;20029;-50
2023/12/25 05:49:00;;;;;;;0.25;0.20;;;20.10;38.90;;;;;;8360603;28;20041;-52
2023/12/25 05:53:01;;;;;;;0.20;0.20;;;20.10;39.00;;;;;;8359411;28;20071;-49
2023/12/25 05:57:02;;;;;;;0.45;0.40;;;20.00;39.00;;;;;;8360600;28;20111;-51
2023/12/25 06:01:03;;;;;;;0.30;0.30;;;19.90;39.50;;;;;;8360388;28;20037;-50
2023/12/25 06:05:04;;;;;;;0.30;0.30;;;19.80;40.40;;;;;;8360276;28;20517;-50
2023/12/25 06:09:05;;;;;;;0.20;0.20;;;19.70;40.00;;;;;;8360308;28;20490;-49
2023/12/25 06:13:06;;;;;;;0.20;0.20;;;19.80;39.70;;;;;;8360376;28;20375;-50
2023/12/25 06:17:07;;;;;;;0.25;0.25;;;19.80;39.60;;;;;;8360528;28;20041;-50
2023/12/25 06:21:08;;;;;;;0.10;0.10;;;19.80;39.50;;;;;;8360124;28;20068;-50
2023/12/25 06:25:08;;;;;;;;;;;20.00;39.30;;;;;;8360502;28;20044;-50
2023/12/25 06:29:09;;;;;;;0.20;0.20;;;20.00;39.00;;;;;;8359856;28;20007;-50
2023/12/25 06:33:10;;;;;;;0.20;0.20;;;20.00;38.90;;;;;;8359760;28;20098;-52
2023/12/25 06:37:10;;;;;;;0.20;0.20;;;20.10;38.90;;;;;;8365000;28;20530;-52
2023/12/25 06:41:11;;;;;;;0.30;0.30;;;20.10;38.90;;;;;;8366457;28;20029;-51
2023/12/25 06:45:12;;;;;;;0.20;0.20;;;20.10;39.00;;;;;;8366359;28;20482;-49
2023/12/25 06:49:13;;;;;;;0.38;0.38;;;19.90;39.60;;;;;;8366131;28;20040;-50
2023/12/25 06:53:14;;;;;;;0.13;0.13;;;19.70;40.60;;;;;;8366534;28;20424;-53
2023/12/25 06:57:15;;;;;;;0.20;0.20;;;19.70;40.10;;;;;;8365800;28;20097;-50
2023/12/25 07:01:23;;;;;;;0.20;0.20;;;19.80;39.70;;;;;;8365855;28;20184;-50
2023/12/25 07:05:24;;;;;;;0.30;0.30;;;19.80;39.40;;;;;;8365621;28;20538;-52
2023/12/25 07:09:25;;;;;;;0.22;0.22;;;19.90;39.10;;;;;;8365695;28;20638;-49
2023/12/25 07:13:26;;;;;;;0.22;0.22;;;20.00;38.90;;;;;;8365634;28;20041;-52
2023/12/25 07:17:27;;;;;;;0.10;0.10;;;20.00;39.00;;;;;;8365606;28;20599;-51
2023/12/25 07:21:27;;;;;;;0.30;0.30;;;20.00;39.10;;;;;;8365459;28;20112;-52
2023/12/25 07:25:28;;;;;;;0.20;0.20;;;20.10;39.00;;;;;;8365483;28;20059;-50
2023/12/25 07:29:30;;;;;;;0.30;0.30;;;20.10;38.90;;;;;;8365394;28;20033;-49
2023/12/25 07:33:33;;;;;;;0.20;0.20;;;20.10;39.00;;;;;;8365275;28;20061;-52
2023/12/25 07:37:34;;;;;;;0.10;0.10;;;19.90;39.80;;;;;;8365299;28;20087;-50
2023/12/25 07:41:35;;;;;;;0.20;0.20;;;19.80;40.40;;;;;;8363502;28;20648;-49
2023/12/25 07:45:36;;;;;;;0.35;0.35;;;19.80;39.90;;;;;;8364870;28;20111;-49
2023/12/25 07:49:37;;;;;;;;;;;19.80;39.50;;;;;;8363531;28;20047;-51
2023/12/25 07:53:38;;;;;;;0.30;0.30;;;19.90;39.20;;;;;;8364657;28;19909;-50
2023/12/25 07:57:39;;;;;;;0.75;0.20;;;20.10;38.90;;;;;;8364293;28;20483;-49
2023/12/25 08:01:40;;;;;;;0.10;0.10;;;20.10;38.80;;;;;;8364216;28;20375;-50
2023/12/25 08:05:40;;;;;;;0.25;0.22;;;20.10;39.30;;;;;;8363935;28;20107;-49
2023/12/25 08:09:41;;;;;;;0.30;0.25;;;20.10;38.60;;;;;;8363652;28;20085;-50
2023/12/25 08:13:42;;;;;;;0.17;0.17;;;20.10;38.70;;;;;;8363548;28;20494;-51
2023/12/25 08:17:42;;;;;;;0.20;0.20;;;20.10;39.10;;;;;;8363614;28;20483;-49
2023/12/25 08:21:43;;;;;;;0.20;0.20;;;20.00;39.20;;;;;;8363175;28;20037;-49
2023/12/25 08:25:44;;;;;;;0.15;0.15;;;19.90;39.70;;;;;;8363146;28;20098;-49
2023/12/25 08:29:44;;;;;;;0.20;0.20;;;19.80;40.40;;;;;;8363132;28;20044;-51
2023/12/25 08:33:45;;;;;;;0.30;0.30;;;19.80;39.90;;;;;;8362753;28;20033;-49
2023/12/25 08:37:46;;;;;;;0.30;0.30;;;19.90;39.50;;;;;;8362964;28;20170;-49
2023/12/25 08:41:46;;;;;;;0.30;0.30;;;20.00;39.20;;;;;;8362588;28;20041;-50
2023/12/25 08:45:47;;;;;;;0.30;0.30;;;20.10;39.00;;;;;;8362602;28;20033;-49
2023/12/25 08:49:48;;;;;;;0.30;0.30;;;20.10;38.80;;;;;;8362333;28;20445;-49
2023/12/25 08:53:49;;;;;;;0.30;0.30;;;20.10;38.60;;;;;;8360978;28;20033;-50
2023/12/25 08:57:49;;;;;;;0.20;0.20;;;20.20;38.60;;;;;;8362376;28;20040;-49
2023/12/25 09:01:51;;;;;;;0.20;0.20;;;20.20;38.60;;;;;;8363000;28;20032;-49
2023/12/25 09:05:51;;;;;;;1.17;0.20;;;20.20;38.60;;;;;;8361771;28;20124;-49
2023/12/25 09:09:52;;;;;;;0.20;0.20;;;20.20;38.60;;;;;;8362035;28;20032;-51
2023/12/25 09:13:53;;;;;;;0.57;0.30;;;20.00;39.40;;;;;;8361749;28;20479;-51
2023/12/25 09:17:53;;;;;;;0.10;0.10;;;19.80;40.30;;;;;;8361646;28;20044;-51
2023/12/25 09:21:54;;;;;;;0.25;0.25;;;19.80;39.90;;;;;;8361629;28;20041;-51
2023/12/25 09:25:55;;;;;;;0.20;0.20;;;19.90;39.60;;;;;;8361430;28;20116;-49
2023/12/25 09:29:56;;;;;;;0.20;0.20;;;20.00;39.20;;;;;;8361280;28;20140;-51
2023/12/25 09:33:56;;;;;;;0.43;0.38;;;20.10;38.90;;;;;;8361307;28;20086;-49
2023/12/25 09:37:57;;;;;;;0.30;0.30;;;20.10;38.70;;;;;;8361013;28;20040;-50
2023/12/25 09:41:58;;;;;;;0.25;0.25;;;20.20;38.50;;;;;;8361515;28;20116;-48
2023/12/25 09:45:58;;;;;;;0.20;0.20;;;20.20;38.50;;;;;;8360993;28;20036;-50
2023/12/25 09:50:00;;;;;;;0.25;0.25;;;20.20;38.60;;;;;;8360683;28;20040;-49
2023/12/25 09:54:01;;;;;;;;;;;20.20;38.60;;;;;;8361099;28;20029;-48
2023/12/25 09:58:06;;;;;;;0.20;0.20;;;20.10;38.70;;;;;;8360613;28;19909;-51
2023/12/25 10:02:07;;;;;;;0.20;0.20;;;19.90;39.40;;;;;;8360504;28;20072;-49
2023/12/25 10:06:07;;;;;;;0.20;0.20;;;19.80;40.00;;;;;;8360466;28;20521;-49
2023/12/25 10:10:11;;;;;;;0.45;0.30;;;19.80;39.60;;;;;;8360536;28;20033;-49
2023/12/25 10:14:12;;;;;;;0.20;0.20;;;19.90;39.30;;;;;;8360034;28;20040;-52
2023/12/25 10:18:13;;;;;;;0.20;0.20;;;19.90;39.30;;;;;;8360145;28;20470;-50
2023/12/25 10:22:31;;;;;;;0.30;0.30;;;19.90;39.20;;;;;;8360226;28;20052;-53
2023/12/25 10:26:32;;;;;;;0.30;0.30;;;20.10;38.90;;;;;;8359983;28;20116;-50
2023/12/25 10:30:32;;;;;;;0.30;0.30;;;20.10;38.60;;;;;;8360021;28;20040;-50
2023/12/25 10:34:33;;;;;;;0.25;0.25;;;20.10;38.50;;;;;;8359862;28;20391;-52
2023/12/25 10:38:36;;;;;;;0.98;0.30;;;20.20;38.50;;;;;;8358575;28;20055;-51
2023/12/25 10:42:37;;;;;;;0.20;0.20;;;20.20;38.60;;;;;;8360089;28;20395;-50
2023/12/25 10:46:40;;;;;;;0.30;0.30;;;20.10;38.60;;;;;;8359743;28;20183;-51
2023/12/25 10:50:44;;;;;;;0.20;0.20;;;19.90;39.80;;;;;;8359732;28;20482;-49
2023/12/25 10:54:46;;;;;;;0.30;0.30;;;19.80;40.00;;;;;;8359519;28;20021;-51
2023/12/25 10:58:51;;;;;;;0.20;0.20;;;19.80;39.40;;;;;;8359329;28;20529;-48
2023/12/25 11:02:55;;;;;;;0.20;0.20;;;19.90;39.20;;;;;;8359691;28;20058;-50
2023/12/25 11:06:57;;;;;;;0.20;0.20;;;20.00;38.90;;;;;;8359228;28;20056;-50
2023/12/25 11:10:58;;;;;;;0.20;0.20;;;20.10;38.70;;;;;;8359049;28;20471;-50
2023/12/25 11:15:01;;;;;;;;;;;20.10;38.70;;;;;;8360857;28;20159;-49
2023/12/25 11:19:02;;;;;;;0.28;0.28;;;20.10;39.00;;;;;;8357746;28;20011;-47
2023/12/25 11:23:05;;;;;;;;;;;20.00;38.70;;;;;;8363474;28;20112;-47
2023/12/25 11:27:06;;;;;;;0.20;0.20;;;20.10;38.70;;;;;;8365054;28;20368;-50
2023/12/25 11:31:07;;;;;;;0.30;0.30;;;20.10;38.70;;;;;;8347114;28;20633;-47
2023/12/25 11:35:08;;;;;;;0.20;0.20;;;20.10;38.90;;;;;;8364946;28;20064;-49
2023/12/25 11:39:09;;;;;;;0.20;0.20;;;19.80;39.90;;;;;;8363280;28;20039;-49
2023/12/25 11:43:10;;;;;;;;;;;19.70;40.00;;;;;;8365031;28;20037;-51
2023/12/25 11:47:11;;;;;;;0.13;0.13;;;19.80;39.60;;;;;;8364616;28;20011;-47
2023/12/25 11:51:32;;;;;;;0.25;0.25;;;19.90;39.20;;;;;;8364140;28;20029;-47
2023/12/25 11:55:32;;;;;;;0.30;0.30;;;20.00;38.90;;;;;;8363877;28;20384;-47
2023/12/25 11:59:33;;;;;;;0.30;0.30;;;20.10;38.70;;;;;;8364180;28;20037;-47
2023/12/25 12:03:34;;;;;;;0.20;0.20;;;20.10;38.60;;;;;;8364055;28;20118;-48
2023/12/25 12:07:34;;;;;;;0.25;0.25;;;20.20;38.40;;;;;;8363213;28;20110;-48
2023/12/25 12:11:35;;;;;;;0.20;0.20;;;20.20;38.40;;;;;;8363668;28;20060;-48
2023/12/25 12:15:36;;;;;;;0.20;0.20;;;20.10;38.60;;;;;;8362370;28;20490;-48
2023/12/25 12:19:37;;;;;;;0.45;0.20;;;20.00;39.00;;;;;;8362027;28;20117;-48
2023/12/25 12:23:38;;;;;;;0.20;0.20;;;20.00;39.00;;;;;;8363224;28;20079;-47
2023/12/25 12:27:39;;;;;;;0.30;0.30;;;19.80;40.00;;;;;;8362118;28;20116;-49
2023/12/25 12:31:40;;;;;;;0.20;0.20;;;19.70;40.00;;;;;;8363128;28;20029;-49
2023/12/25 12:35:41;;;;;;;0.20;0.20;;;19.80;39.60;;;;;;8362136;28;20475;-50
2023/12/25 12:39:42;;;;;;;0.20;0.20;;;19.90;39.30;;;;;;8362791;28;20497;-49
2023/12/25 12:43:43;;;;;;;0.20;0.20;;;20.00;38.90;;;;;;8362666;28;20483;-48
2023/12/25 12:47:44;;;;;;;0.20;0.20;;;20.00;38.70;;;;;;8362646;28;20479;-48
2023/12/25 12:51:45;;;;;;;0.20;0.20;;;20.00;38.50;;;;;;8361263;28;20033;-49
2023/12/25 12:55:45;;;;;;;0.20;0.20;;;20.10;38.50;;;;;;8362285;28;20036;-50
2023/12/25 12:59:47;;;;;;;0.10;0.10;;;20.00;38.60;;;;;;8362265;28;20061;-49
2023/12/25 13:03:48;;;;;;;;;;;20.10;38.60;;;;;;8362571;28;20037;-50
2023/12/25 13:07:48;;;;;;;0.25;0.20;;;20.10;38.60;;;;;;8361995;28;19921;-49
2023/12/25 13:11:49;;;;;;;0.22;0.22;;;20.00;38.90;;;;;;8361884;28;20068;-51
2023/12/25 13:15:50;;;;;;;0.20;0.20;;;19.70;40.20;;;;;;8361689;28;20076;-50
2023/12/25 13:19:51;;;;;;;0.20;0.20;;;19.70;40.40;;;;;;8361567;28;20037;-48
2023/12/25 13:23:51;;;;;;;0.20;0.20;;;19.70;39.80;;;;;;8361461;28;20116;-51
2023/12/25 13:27:53;;;;;;;0.28;0.20;;;19.80;39.30;;;;;;8361160;28;20025;-50
2023/12/25 13:31:53;;;;;;;;;;;19.90;39.00;;;;;;8361778;28;20029;-51
2023/12/25 13:35:54;;;;;;;0.20;0.20;;;20.00;38.70;;;;;;8361275;28;19915;-52
2023/12/25 13:39:57;;;;;;;0.20;0.20;;;20.10;38.60;;;;;;8361004;28;20037;-50
2023/12/25 13:43:57;;;;;;;0.20;0.20;;;20.10;38.50;;;;;;8360252;28;20048;-49
2023/12/25 13:47:58;;;;;;;0.20;0.20;;;20.00;38.50;;;;;;8360844;28;20036;-51
2023/12/25 13:51:59;;;;;;;0.25;0.25;;;20.10;38.60;;;;;;8360648;28;20095;-50
2023/12/25 13:56:00;;;;;;;;;;;20.00;38.60;;;;;;8360794;28;20478;-50
2023/12/25 14:00:01;;;;;;;0.23;0.23;;;20.00;38.90;;;;;;8360425;28;20532;-49
2023/12/25 14:04:01;;;;;;;0.20;0.20;;;19.80;39.90;;;;;;8360264;28;20033;-49
2023/12/25 14:08:02;;;;;;;0.20;0.20;;;19.70;39.80;;;;;;8360132;28;20092;-51
2023/12/25 14:12:03;;;;;;;0.20;0.20;;;19.80;39.40;;;;;;8360239;28;20482;-51
2023/12/25 14:16:05;;;;;;;0.20;0.20;;;19.90;39.20;;;;;;8359752;28;20043;-48
2023/12/25 14:20:06;;;;;;;0.20;0.20;;;19.90;39.20;;;;;;8359980;28;20033;-52
2023/12/25 14:24:07;;;;;;;0.25;0.25;;;19.90;38.90;;;;;;8359734;28;20124;-50
2023/12/25 14:28:08;;;;;;;0.28;0.28;;;20.10;38.70;;;;;;8359629;28;20540;-49
2023/12/25 14:32:09;;;;;;;;;;;20.10;38.40;;;;;;8360293;28;20108;-49
2023/12/25 14:36:10;;;;;;;0.30;0.30;;;20.10;38.50;;;;;;8359558;28;19910;-49
2023/12/25 14:40:11;;;;;;;0.30;0.30;;;20.10;38.50;;;;;;8359361;28;20041;-49
2023/12/25 14:44:12;;;;;;;0.20;0.20;;;20.10;38.50;;;;;;8359618;28;20506;-50
2023/12/25 14:48:13;;;;;;;0.30;0.30;;;20.00;38.80;;;;;;8359436;28;20116;-48
2023/12/25 14:52:14;;;;;;;0.15;0.15;;;19.80;40.00;;;;;;8359468;28;20475;-51
2023/12/25 14:56:15;;;;;;;0.20;0.20;;;19.80;39.80;;;;;;8359739;28;20044;-49
2023/12/25 15:00:16;;;;;;;0.20;0.17;;;19.80;39.30;;;;;;8365718;28;20403;-49
2023/12/25 15:04:18;;;;;;;;;;;19.90;39.00;;;;;;8366501;28;20064;-49
2023/12/25 15:08:19;;;;;;;0.20;0.20;;;20.00;38.70;;;;;;8365568;28;20510;-50
2023/12/25 15:12:19;;;;;;;0.20;0.20;;;20.10;38.60;;;;;;8365568;28;20295;-50
2023/12/25 15:16:20;;;;;;;0.22;0.22;;;20.00;38.50;;;;;;8365478;28;20032;-50
2023/12/25 15:20:21;;;;;;;0.30;0.30;;;20.00;38.80;;;;;;8365293;28;20033;-49
2023/12/25 15:24:22;;;;;;;0.22;0.22;;;20.10;38.60;;;;;;8365216;28;20079;-48
2023/12/25 15:28:22;;;;;;;0.17;0.17;;;20.10;38.60;;;;;;8364931;28;20064;-51
2023/12/25 15:32:25;;;;;;;0.20;0.20;;;20.10;38.60;;;;;;8365126;28;20025;-48
2023/12/25 15:36:25;;;;;;;0.20;0.20;;;20.00;39.20;;;;;;8365008;28;20040;-51
2023/12/25 15:40:27;;;;;;;4.57;0.30;;;19.80;40.00;;;;;;8364685;28;20041;-49
2023/12/25 15:44:28;;;;;;;0.20;0.20;;;19.80;39.70;;;;;;8364848;28;20025;-51
2023/12/25 15:48:32;;;;;;;0.60;0.45;;;19.80;39.30;;;;;;8364596;28;20036;-49
2023/12/25 15:52:33;;;;;;;0.55;0.28;;;19.90;39.00;;;;;;8364494;28;20474;-50
2023/12/25 15:56:34;;;;;;;0.20;0.20;;;20.00;38.70;;;;;;8364331;28;20043;-51
2023/12/25 16:00:35;;;;;;;0.25;0.25;;;20.10;38.40;;;;;;8364294;28;20037;-53
2023/12/25 16:04:35;;;;;;;0.20;0.20;;;20.10;38.30;;;;;;8363955;28;20033;-50
2023/12/25 16:08:37;;;;;;;0.35;0.30;;;20.10;38.20;;;;;;8362642;28;20215;-49
2023/12/25 16:12:39;;;;;;;0.30;0.30;;;20.10;38.30;;;;;;8363873;28;20492;-49
2023/12/25 16:16:40;;;;;;;0.20;0.20;;;20.10;38.50;;;;;;8363635;28;20382;-51
2023/12/25 16:20:42;;;;;;;0.25;0.25;;;20.10;38.90;;;;;;8363691;28;20091;-51
2023/12/25 16:24:43;;;;;;;0.20;0.20;;;20.00;39.30;;;;;;8363439;28;20047;-51
2023/12/25 16:28:44;;;;;;;0.25;0.20;;;19.80;40.00;;;;;;8363315;28;20037;-50
2023/12/25 16:32:44;;;;;;;0.35;0.30;;;19.80;39.70;;;;;;8363396;28;20040;-50
2023/12/25 16:36:47;;;;;;;0.20;0.20;;;19.80;39.30;;;;;;8362987;28;20107;-51
2023/12/25 16:40:47;;;;;;;0.20;0.20;;;19.90;39.00;;;;;;8362818;28;20032;-49
2023/12/25 16:44:48;;;;;;;0.22;0.22;;;20.00;38.70;;;;;;8363886;28;20029;-50
2023/12/25 16:48:49;;;;;;;0.30;0.30;;;20.10;38.50;;;;;;8362608;28;20029;-49
2023/12/25 16:52:50;;;;;;;0.30;0.30;;;20.10;38.40;;;;;;8361564;28;20082;-49
2023/12/25 16:56:51;;;;;;;;;;;20.10;38.40;;;;;;8362792;28;20024;-51
2023/12/25 17:00:52;;;;;;;0.20;0.20;;;20.10;38.30;;;;;;8362377;28;19944;-50
2023/12/25 17:04:52;;;;;;;0.20;0.20;;;20.10;38.40;;;;;;8362150;28;20430;-50
2023/12/25 17:08:55;;;;;;;0.40;0.30;;;20.20;38.40;;;;;;8362238;28;20041;-48
2023/12/25 17:12:55;;;;;;;0.20;0.20;;;20.00;38.90;;;;;;8361728;28;20029;-47
2023/12/25 17:16:56;;;;;;;0.22;0.22;;;19.80;40.10;;;;;;8361797;28;20025;-47
2023/12/25 17:20:57;;;;;;;0.20;0.20;;;19.80;39.80;;;;;;8361411;28;20033;-50
2023/12/25 17:24:58;;;;;;;0.30;0.30;;;19.80;39.30;;;;;;8361354;28;20029;-47
2023/12/25 17:28:59;;;;;;;0.22;0.22;;;20.00;39.00;;;;;;8361142;28;20124;-47
2023/12/25 17:33:04;;;;;;;0.30;0.30;;;20.00;38.60;;;;;;8361100;28;20057;-48
2023/12/25 17:37:04;;;;;;;0.20;0.20;;;20.10;38.40;;;;;;8360946;28;20467;-47
2023/12/25 17:41:05;;;;;;;0.35;0.25;;;20.20;38.40;;;;;;8361014;28;20403;-47
2023/12/25 17:45:07;;;;;;;0.47;0.30;;;20.20;38.20;;;;;;8360860;28;20082;-47
2023/12/25 17:49:07;;;;;;;0.20;0.20;;;20.20;38.20;;;;;;8360559;28;20495;-48
2023/12/25 17:53:08;;;;;;;0.30;0.30;;;20.20;38.20;;;;;;8360592;28;20390;-48
2023/12/25 17:57:09;;;;;;;0.30;0.30;;;20.20;38.30;;;;;;8360455;28;20048;-47
2023/12/25 18:01:10;;;;;;;0.30;0.30;;;20.10;39.00;;;;;;8360588;28;20033;-46
2023/12/25 18:05:12;;;;;;;0.30;0.30;;;19.80;39.80;;;;;;8360049;28;20060;-47
2023/12/25 18:09:13;;;;;;;0.30;0.30;;;19.80;39.30;;;;;;8359945;28;20498;-48
2023/12/25 18:13:13;;;;;;;0.30;0.30;;;19.90;38.90;;;;;;8360370;28;20037;-47
2023/12/25 18:17:14;;;;;;;0.30;0.20;;;19.90;38.90;;;;;;8360314;28;20068;-49
2023/12/25 18:21:15;;;;;;;0.50;0.35;;;20.00;38.90;;;;;;8359855;28;20438;-50
2023/12/25 18:25:16;;;;;;;0.40;0.40;;;20.10;38.60;;;;;;8359990;28;20394;-49
2023/12/25 18:29:17;;;;;;;0.47;0.32;;;20.10;38.40;;;;;;8359673;28;20049;-49
2023/12/25 18:33:18;;;;;;;0.30;0.30;;;20.20;38.30;;;;;;8359268;28;20087;-51
2023/12/25 18:37:18;;;;;;;0.30;0.30;;;20.20;38.20;;;;;;8360044;28;20029;-51
2023/12/25 18:41:19;;;;;;;0.30;0.30;;;20.20;38.30;;;;;;8359506;28;20036;-48
2023/12/25 18:45:20;;;;;;;0.30;0.30;;;20.20;38.30;;;;;;8359530;28;20040;-49
2023/12/25 18:49:21;;;;;;;0.30;0.30;;;20.00;38.90;;;;;;8359496;28;20115;-49
2023/12/25 18:53:21;;;;;;;0.35;0.35;;;19.90;39.90;;;;;;8359507;28;20029;-49
2023/12/25 18:57:22;;;;;;;0.28;0.28;;;19.80;39.40;;;;;;8359626;28;20033;-48
2023/12/25 19:01:23;;;;;;;0.40;0.40;;;19.90;39.00;;;;;;8359463;28;20163;-50
2023/12/25 19:05:23;;;;;;;0.22;0.22;;;20.00;38.80;;;;;;8359136;28;20052;-52
2023/12/25 19:09:26;;;;;;;0.40;0.40;;;20.10;38.50;;;;;;8359148;28;20029;-49
2023/12/25 19:13:26;;;;;;;0.50;0.30;;;20.20;38.20;;;;;;8359107;28;20025;-50
2023/12/25 19:17:27;;;;;;;0.50;0.50;;;20.10;38.40;;;;;;8359208;28;20037;-51
2023/12/25 19:21:28;;;;;;;0.90;0.90;;;20.10;38.40;;;;;;8359094;28;20040;-50
2023/12/25 19:25:28;;;;;;;0.43;0.40;;;20.20;38.30;;;;;;8359733;28;20029;-51
2023/12/25 19:29:29;;;;;;;0.57;0.43;;;20.20;38.30;;;;;;8358855;28;20037;-50
2023/12/25 19:33:30;;;;;;;0.60;0.60;;;20.10;38.30;;;;;;8358966;28;20033;-50
2023/12/25 19:37:31;;;;;;;0.43;0.35;;;20.00;39.10;;;;;;8358688;28;20036;-48
2023/12/25 19:41:32;;;;;;;0.50;0.50;;;19.80;39.80;;;;;;8358758;28;20036;-49
2023/12/25 19:45:33;;;;;;;0.75;0.60;;;19.80;39.30;;;;;;8363525;28;20033;-49
2023/12/25 19:49:33;;;;;;;0.50;0.50;;;19.90;38.90;;;;;;8364492;28;20029;-48
2023/12/25 19:53:34;;;;;;;0.50;0.50;;;20.00;38.60;;;;;;8364160;28;20032;-49
2023/12/25 19:57:35;;;;;;;0.98;0.43;;;20.10;38.40;;;;;;8364158;28;20033;-48
2023/12/25 20:01:37;;;;;;;0.50;0.38;;;20.10;38.30;;;;;;8364086;28;20502;-50
2023/12/25 20:05:38;;;;;;;0.60;0.30;;;20.10;38.10;;;;;;8363637;28;20574;-49
2023/12/25 20:09:39;;;;;;;0.55;0.43;;;20.10;38.20;;;;;;8364100;28;20399;-49
2023/12/25 20:13:40;;;;;;;1.23;0.43;;;20.10;38.20;;;;;;8363650;28;20083;-49
2023/12/25 20:17:40;;;;;;;0.57;0.57;;;20.10;38.40;;;;;;8362242;28;20033;-48
2023/12/25 20:21:41;;;;;;;0.50;0.50;;;20.10;38.90;;;;;;8363463;28;20053;-49
2023/12/25 20:25:44;;;;;;;0.65;0.60;;;19.90;39.40;;;;;;8363387;28;20072;-50
2023/12/25 20:29:44;;;;;;;0.60;0.60;;;19.80;39.90;;;;;;8363041;28;20482;-49
2023/12/25 20:33:45;;;;;;;0.32;0.32;;;19.80;39.40;;;;;;8363171;28;20501;-48
2023/12/25 20:37:46;;;;;;;0.40;0.40;;;19.80;39.20;;;;;;8362959;28;20067;-51
2023/12/25 20:41:47;;;;;;;0.47;0.47;;;19.90;38.70;;;;;;8362812;28;20029;-50
2023/12/25 20:45:47;;;;;;;0.77;0.40;;;20.00;38.50;;;;;;8361340;28;20055;-50
2023/12/25 20:49:48;;;;;;;0.70;0.70;;;20.10;38.30;;;;;;8362990;28;20097;-55
2023/12/25 20:53:49;;;;;;;0.88;0.60;;;20.00;38.20;;;;;;8362019;28;20025;-52
2023/12/25 20:57:49;;;;;;;0.50;0.50;;;20.10;38.20;;;;;;8362344;28;20037;-51
2023/12/25 21:01:50;;;;;;;0.40;0.40;;;20.10;38.10;;;;;;8362555;28;20038;-50